createdAt,value
2018-09-28T00:00:46.939Z,3.20
2018-09-28T00:05:51.130Z,3.37
2018-09-28T00:10:55.332Z,3.37
2018-09-28T00:15:59.506Z,3.00
2018-09-28T00:21:03.724Z,3.53
2018-09-28T00:26:08.059Z,3.13
2018-09-28T00:31:12.455Z,3.10
2018-09-28T00:36:16.666Z,3.10
2018-09-28T00:41:20.798Z,3.13
2018-09-28T00:46:24.999Z,3.57
2018-09-28T00:51:29.231Z,3.70
2018-09-28T00:56:33.438Z,3.70
2018-09-28T01:01:37.667Z,3.37
2018-09-28T01:06:41.908Z,3.37
2018-09-28T01:11:46.659Z,3.20
2018-09-28T01:16:51.797Z,3.47
2018-09-28T01:21:56.150Z,3.47
2018-09-28T01:27:00.351Z,3.33
2018-09-28T01:32:04.628Z,3.40
2018-09-28T01:37:08.999Z,3.73
2018-09-28T01:42:13.219Z,3.70
2018-09-28T01:47:17.759Z,3.30
2018-09-28T01:52:21.931Z,3.60
2018-09-28T01:57:26.440Z,3.90
2018-09-28T02:02:30.830Z,3.37
2018-09-28T02:07:35.065Z,3.47
2018-09-28T02:12:39.310Z,3.53
2018-09-28T02:17:43.595Z,3.97
2018-09-28T02:22:47.843Z,4.07
2018-09-28T02:27:52.061Z,3.40
2018-09-28T02:32:56.286Z,4.07
2018-09-28T02:38:00.434Z,3.80
2018-09-28T02:43:04.567Z,3.87
2018-09-28T02:48:08.825Z,4.03
2018-09-28T02:53:18.489Z,3.83
2018-09-28T02:58:22.612Z,3.70
2018-09-28T03:03:26.823Z,4.00
2018-09-28T03:08:30.951Z,3.27
2018-09-28T03:13:35.211Z,3.63
2018-09-28T03:18:39.403Z,3.53
2018-09-28T03:23:43.533Z,3.50
2018-09-28T03:28:48.249Z,4.67
2018-09-28T03:33:52.436Z,4.20
2018-09-28T03:38:56.669Z,4.43
2018-09-28T03:44:00.910Z,4.60
2018-09-28T03:49:05.512Z,3.90
2018-09-28T03:54:10.053Z,4.30
2018-09-28T03:59:14.321Z,4.00
2018-09-28T04:04:18.637Z,3.63
2018-09-28T04:09:23.293Z,4.20
2018-09-28T04:14:27.529Z,3.80
2018-09-28T04:19:31.876Z,3.97
2018-09-28T04:24:36.067Z,4.13
2018-09-28T04:29:40.303Z,3.83
2018-09-28T04:34:44.703Z,3.80
2018-09-28T04:39:48.982Z,4.23
2018-09-28T04:44:53.250Z,3.93
2018-09-28T04:49:57.578Z,4.10
2018-09-28T04:55:01.803Z,4.03
2018-09-28T05:00:05.999Z,3.77
2018-09-28T05:05:10.160Z,4.40
2018-09-28T05:10:14.698Z,4.77
2018-09-28T05:15:18.937Z,4.13
2018-09-28T05:20:23.139Z,4.83
2018-09-28T05:25:27.477Z,4.70
2018-09-28T05:30:31.590Z,4.67
2018-09-28T05:35:35.886Z,4.83
2018-09-28T05:40:40.816Z,5.03
2018-09-28T05:45:45.049Z,5.40
2018-09-28T05:50:49.419Z,6.00
2018-09-28T05:55:53.793Z,6.37
2018-09-28T06:01:03.482Z,6.40
2018-09-28T06:06:08.051Z,6.60
2018-09-28T06:11:13.379Z,6.13
2018-09-28T06:16:17.705Z,6.53
2018-09-28T06:21:21.920Z,5.77
2018-09-28T06:26:26.330Z,6.50
2018-09-28T06:31:30.634Z,6.43
2018-09-28T06:36:34.917Z,7.23
2018-09-28T06:41:39.303Z,8.73
2018-09-28T06:46:44.310Z,9.17
2018-09-28T06:51:48.718Z,7.90
2018-09-28T06:56:53.411Z,9.03
2018-09-28T07:01:58.020Z,9.20
2018-09-28T07:07:02.805Z,12.20
2018-09-28T07:12:07.231Z,9.90
2018-09-28T07:17:11.566Z,9.37
2018-09-28T07:22:16.184Z,9.20
2018-09-28T07:27:21.483Z,9.10
2018-09-28T07:32:26.127Z,9.73
2018-09-28T07:37:32.022Z,8.90
2018-09-28T07:42:36.722Z,10.37
2018-09-28T07:47:41.413Z,10.53
2018-09-28T07:52:46.299Z,9.60
2018-09-28T07:57:50.777Z,10.67
2018-09-28T08:02:55.123Z,11.13
2018-09-28T08:08:00.237Z,10.50
2018-09-28T08:13:05.295Z,10.93
2018-09-28T08:18:09.705Z,10.73
2018-09-28T08:23:14.129Z,12.47
2018-09-28T08:28:18.474Z,13.40
2018-09-28T08:33:22.835Z,13.97
2018-09-28T08:38:27.195Z,15.53
2018-09-28T08:43:31.918Z,15.50
2018-09-28T08:48:36.303Z,15.57
2018-09-28T08:53:40.545Z,17.43
2018-09-28T08:58:45.054Z,17.83
2018-09-28T09:03:49.490Z,18.93
2018-09-28T09:08:53.876Z,19.63
2018-09-28T09:13:58.444Z,19.33
2018-09-28T09:19:03.036Z,19.07
2018-09-28T09:24:07.689Z,19.20
2018-09-28T09:29:12.217Z,19.40
2018-09-28T09:34:16.594Z,19.13
2018-09-28T09:39:20.774Z,19.07
2018-09-28T09:44:25.342Z,20.90
2018-09-28T09:49:29.911Z,21.87
2018-09-28T09:54:34.258Z,19.93
2018-09-28T09:59:39.044Z,17.80
2018-09-28T10:04:45.164Z,16.83
2018-09-28T10:09:49.667Z,17.27
2018-09-28T10:14:54.375Z,16.00
2018-09-28T10:19:58.617Z,18.30
2018-09-28T10:25:03.159Z,17.77
2018-09-28T10:30:07.698Z,19.70
2018-09-28T10:35:12.906Z,18.83
2018-09-28T10:40:17.266Z,18.63
2018-09-28T10:45:21.568Z,19.30
2018-09-28T10:50:26.053Z,16.67
2018-09-28T10:55:30.371Z,17.47
2018-09-28T11:00:34.769Z,17.40
2018-09-28T11:05:39.222Z,16.50
2018-09-28T11:10:43.832Z,15.80
2018-09-28T11:15:48.006Z,13.13
2018-09-28T11:20:53.400Z,11.50
2018-09-28T11:25:59.185Z,7.70
2018-09-28T11:31:03.552Z,3.30
2018-09-28T11:36:08.439Z,3.20
2018-09-28T11:41:13.393Z,2.90
2018-09-28T11:46:18.014Z,2.43
2018-09-28T11:51:22.296Z,3.20
2018-09-28T11:56:26.787Z,2.67
2018-09-28T12:01:31.239Z,2.77
2018-09-28T12:06:36.897Z,2.30
2018-09-28T12:11:41.634Z,2.50
2018-09-28T12:16:46.023Z,2.70
2018-09-28T12:21:50.396Z,2.57
2018-09-28T12:26:54.634Z,2.17
2018-09-28T12:31:59.229Z,3.40
2018-09-28T12:37:09.769Z,2.80
2018-09-28T12:42:14.043Z,3.00
2018-09-28T12:47:18.288Z,2.73
2018-09-28T12:52:22.786Z,2.70
2018-09-28T12:57:27.405Z,2.97
2018-09-28T13:02:31.810Z,3.03
2018-09-28T13:07:36.294Z,2.67
2018-09-28T13:12:40.802Z,3.00
2018-09-28T13:17:45.178Z,3.60
2018-09-28T13:22:49.598Z,3.23
2018-09-28T13:27:53.962Z,2.83
2018-09-28T13:32:58.364Z,2.57
2018-09-28T13:38:02.902Z,3.07
2018-09-28T13:43:07.542Z,2.50
2018-09-28T13:48:13.981Z,2.83
2018-09-28T13:53:18.462Z,2.50
2018-09-28T13:58:23.790Z,2.40
2018-09-28T14:03:29.297Z,3.07
2018-09-28T14:08:34.021Z,3.00
2018-09-28T14:13:38.826Z,4.70
2018-09-28T14:18:43.631Z,2.97
2018-09-28T14:23:48.706Z,2.97
2018-09-28T14:28:53.300Z,2.63
2018-09-28T14:33:57.798Z,3.83
2018-09-28T14:39:02.227Z,2.73
2018-09-28T14:44:07.176Z,3.47
2018-09-28T14:49:12.387Z,3.07
2018-09-28T14:54:17.552Z,3.10
2018-09-28T15:00:51.416Z,2.67
2018-09-28T15:05:56.126Z,4.80
2018-09-28T15:11:01.297Z,2.63
2018-09-28T15:16:05.969Z,3.90
2018-09-28T15:21:10.378Z,2.93
2018-09-28T15:26:15.536Z,3.07
2018-09-28T15:32:49.486Z,2.47
2018-09-28T15:37:54.024Z,2.73
2018-09-28T15:42:58.308Z,2.53
2018-09-28T15:48:02.563Z,2.77
2018-09-28T15:53:06.934Z,2.80
2018-09-28T15:58:11.126Z,2.67
2018-09-28T16:03:16.475Z,2.40
2018-09-28T16:08:20.730Z,2.33
2018-09-28T16:13:25.044Z,2.07
2018-09-28T16:18:29.528Z,1.80
2018-09-28T16:23:34.652Z,2.40
2018-09-28T16:28:39.039Z,2.30
2018-09-28T16:33:43.559Z,2.67
2018-09-28T16:38:50.653Z,2.80
2018-09-28T16:43:55.014Z,3.13
2018-09-28T16:49:05.063Z,2.87
2018-09-28T16:54:09.380Z,2.80
2018-09-28T16:59:13.898Z,2.43
2018-09-28T17:04:18.378Z,3.03
2018-09-28T17:09:22.895Z,2.47
2018-09-28T17:14:27.120Z,2.97
2018-09-28T17:19:31.672Z,2.63
2018-09-28T17:24:36.280Z,2.70
2018-09-28T17:29:40.514Z,2.30
2018-09-28T17:34:45.662Z,3.00
2018-09-28T17:45:05.701Z,3.23
2018-09-28T17:50:10.104Z,3.17
2018-09-28T17:55:15.014Z,3.53
2018-09-28T18:00:19.654Z,3.63
2018-09-28T18:05:24.259Z,3.43
2018-09-28T18:10:29.192Z,3.33
2018-09-28T18:15:33.657Z,4.53
2018-09-28T18:20:42.933Z,4.03
2018-09-28T18:25:47.479Z,4.40
2018-09-28T18:30:52.129Z,4.23
2018-09-28T18:35:56.643Z,4.80
2018-09-28T18:41:06.630Z,5.23
2018-09-28T18:46:10.822Z,5.30
2018-09-28T18:51:15.308Z,4.80
2018-09-28T18:56:19.647Z,4.87
2018-09-28T19:01:23.861Z,4.80
2018-09-28T19:06:28.217Z,4.17
2018-09-28T19:11:32.740Z,5.10
2018-09-28T19:16:37.309Z,4.90
2018-09-28T19:21:42.712Z,5.73
2018-09-28T19:26:47.085Z,4.70
2018-09-28T19:31:51.737Z,5.27
2018-09-28T19:36:56.155Z,4.20
2018-09-28T19:42:00.507Z,4.10
2018-09-28T19:47:04.833Z,3.90
2018-09-28T19:52:09.321Z,3.80
2018-09-28T19:57:14.710Z,4.70
2018-09-28T20:02:19.665Z,5.43
2018-09-28T20:07:24.121Z,4.80
2018-09-28T20:12:28.537Z,4.47
2018-09-28T20:17:33.256Z,4.13
2018-09-28T20:22:38.052Z,4.30
2018-09-28T20:27:42.984Z,4.00
2018-09-28T20:32:47.539Z,4.10
2018-09-28T20:37:52.124Z,4.10
2018-09-28T20:42:56.968Z,5.00
2018-09-28T20:48:01.567Z,3.67
2018-09-28T20:53:06.256Z,4.53
2018-09-28T20:58:10.744Z,3.80
2018-09-28T21:03:15.160Z,4.23
2018-09-28T21:08:19.553Z,4.60
2018-09-28T21:13:23.864Z,4.33
2018-09-28T21:18:28.180Z,4.40
2018-09-28T21:23:32.550Z,4.63
2018-09-28T21:28:36.848Z,4.43
2018-09-28T21:33:41.135Z,4.37
2018-09-28T21:38:45.493Z,5.00
2018-09-28T21:43:49.722Z,4.40
2018-09-28T21:48:53.994Z,5.07
2018-09-28T21:53:58.272Z,5.50
2018-09-28T21:59:02.623Z,4.57
2018-09-28T22:04:06.903Z,4.70
2018-09-28T22:09:11.301Z,4.63
2018-09-28T22:14:15.746Z,4.33
2018-09-28T22:19:19.981Z,4.17
2018-09-28T22:24:24.996Z,4.13
2018-09-28T22:29:30.163Z,4.17
2018-09-28T22:34:36.120Z,3.97
2018-09-28T22:39:40.673Z,3.80
2018-09-28T22:44:44.825Z,3.77
2018-09-28T22:49:54.195Z,3.60
2018-09-28T22:54:58.515Z,3.50
2018-09-28T23:00:03.057Z,3.87
2018-09-28T23:05:07.788Z,4.17
2018-09-28T23:10:12.047Z,3.70
2018-09-28T23:15:16.373Z,3.70
2018-09-28T23:20:20.655Z,4.60
2018-09-28T23:25:24.930Z,2.80
2018-09-28T23:30:29.155Z,3.60
2018-09-28T23:35:33.295Z,3.63
2018-09-28T23:40:37.543Z,3.63
2018-09-28T23:45:41.837Z,4.07
2018-09-28T23:50:46.373Z,3.33
2018-09-28T23:55:50.467Z,3.60
